Time;durP1;ratioP1;P1;durP2;ratioP2;P2;SDS_P1;SDS_P2;PMS_P1;PMS_P2;Temp;Humidity;BMP_temperature;BMP_pressure;BME280_temperature;BME280_humidity;BME280_pressure;Samples;Min_cycle;Max_cycle;Signal;HPM_P1;HPM_P2
2022/01/16 00:05:11;;;;;;;13.70;7.60;;;;;;;1.91;100.00;101559.02;107653;1279;63357;-78
2022/01/16 00:07:38;;;;;;;19.20;8.40;;;;;;;1.87;100.00;101562.90;107659;1279;60594;-78
2022/01/16 00:10:06;;;;;;;14.90;8.70;;;;;;;1.85;100.00;101562.50;108052;1279;75158;-78
2022/01/16 00:12:33;;;;;;;12.50;7.20;;;;;;;1.83;100.00;101563.84;108045;1279;73186;-78
2022/01/16 00:15:18;;;;;;;;;;;;;;;;;;;;;
2022/01/16 00:18:07;;;;;;;14.90;8.70;;;;;;;1.78;100.00;101526.65;107798;1279;61515;-78
2022/01/16 00:20:36;;;;;;;16.00;9.10;;;;;;;1.75;100.00;101527.02;108095;1277;60725;-78
2022/01/16 00:23:09;;;;;;;13.80;7.20;;;;;;;1.73;100.00;101529.59;107732;1277;73671;-78
2022/01/16 00:25:41;;;;;;;11.30;5.90;;;;;;;1.71;100.00;101533.26;108121;1277;72637;-77
2022/01/16 00:28:15;;;;;;;13.20;6.70;;;;;;;1.68;100.00;101544.73;108045;1279;72061;-77
2022/01/16 00:30:44;;;;;;;;;;;;;;;1.66;100.00;101544.02;107715;1279;60370;-78
2022/01/16 00:33:17;;;;;;;18.50;9.00;;;;;;;1.61;100.00;101538.88;107690;1279;60318;-78
2022/01/16 00:35:46;;;;;;;20.20;8.60;;;;;;;1.60;100.00;101543.46;107635;1279;76433;-78
2022/01/16 00:38:24;;;;;;;19.20;10.30;;;;;;;1.60;100.00;101542.64;107692;1279;71757;-78
2022/01/16 00:40:52;;;;;;;17.70;9.40;;;;;;;1.59;100.00;101543.40;107599;1279;72667;-78
2022/01/16 00:43:20;;;;;;;16.50;9.10;;;;;;;1.59;100.00;101532.76;107670;1279;60703;-78
2022/01/16 00:46:09;;;;;;;19.70;9.70;;;;;;;1.59;100.00;101515.65;107610;1279;61172;-78
2022/01/16 00:48:43;;;;;;;16.10;8.50;;;;;;;1.57;100.00;101498.15;107681;1278;73546;-78
2022/01/16 00:51:46;;;;;;;19.50;9.30;;;;;;;1.56;100.00;101492.82;107712;1279;72297;-79
2022/01/16 00:54:13;;;;;;;20.70;9.40;;;;;;;1.57;100.00;101506.92;108002;1277;72747;-78
2022/01/16 00:56:48;;;;;;;18.70;9.20;;;;;;;1.57;100.00;101495.04;108099;1279;61516;-78
2022/01/16 00:59:15;;;;;;;22.60;10.80;;;;;;;1.57;100.00;101485.82;107839;1278;59987;-78
2022/01/16 01:01:54;;;;;;;19.70;10.20;;;;;;;1.58;100.00;101480.66;107998;1279;73732;-79
2022/01/16 01:04:39;;;;;;;19.10;10.10;;;;;;;1.60;100.00;101482.26;108064;1278;71391;-79
2022/01/16 01:07:07;;;;;;;17.50;8.80;;;;;;;1.62;100.00;101486.35;107722;1279;73236;-79
2022/01/16 01:09:39;;;;;;;17.50;10.40;;;;;;;1.66;100.00;101491.34;108110;1278;61806;-79
2022/01/16 01:12:09;;;;;;;19.20;10.60;;;;;;;1.68;100.00;101472.91;108020;1279;60904;-78
2022/01/16 01:17:13;;;;;;;18.20;9.40;;;;;;;1.68;100.00;101459.98;108139;1279;72670;-78
2022/01/16 01:19:40;;;;;;;22.00;10.40;;;;;;;1.68;100.00;101451.96;107938;1279;73161;-78
2022/01/16 01:22:06;;;;;;;20.80;9.80;;;;;;;1.69;100.00;101451.58;108139;1278;61113;-79
2022/01/16 01:24:34;;;;;;;24.40;10.80;;;;;;;1.70;100.00;101444.92;108133;1279;61566;-79
2022/01/16 01:27:26;;;;;;;19.80;9.90;;;;;;;1.70;100.00;101451.89;108250;1279;75141;-80
2022/01/16 01:30:00;;;;;;;22.40;10.80;;;;;;;1.70;100.00;101456.05;108276;1277;72381;-80
2022/01/16 01:32:29;;;;;;;20.10;9.80;;;;;;;1.70;100.00;101450.65;108083;1278;73140;-80
2022/01/16 01:34:59;;;;;;;17.10;8.40;;;;;;;1.69;100.00;101466.73;108233;1278;63246;-81
2022/01/16 01:37:26;;;;;;;17.00;9.30;;;;;;;1.69;100.00;101470.55;108246;1277;61735;-80
2022/01/16 01:39:55;;;;;;;15.10;8.00;;;;;;;1.69;100.00;101459.27;108009;1279;76235;-82
2022/01/16 01:42:30;;;;;;;18.40;8.80;;;;;;;1.66;100.00;101450.39;107879;1279;71512;-81
2022/01/16 01:53:30;;;;;;;18.60;8.50;;;;;;;1.60;100.00;101370.39;108074;1279;75107;-82
2022/01/16 01:56:03;;;;;;;18.90;8.70;;;;;;;1.58;100.00;101353.38;108228;1279;72860;-82
2022/01/16 01:58:39;;;;;;;16.10;8.40;;;;;;;1.57;100.00;101367.77;108095;1279;74520;-82
2022/01/16 02:01:07;;;;;;;15.70;7.80;;;;;;;1.57;100.00;101386.09;108187;1279;62942;-81
2022/01/16 02:06:14;;;;;;;11.30;5.00;;;;;;;1.57;100.00;101389.38;108236;1279;74895;-81
2022/01/16 02:08:46;;;;;;;18.40;8.70;;;;;;;1.57;100.00;101383.80;107959;1279;71416;-78
2022/01/16 02:11:14;;;;;;;15.90;7.80;;;;;;;1.57;100.00;101384.87;108074;1277;73687;-79
2022/01/16 02:13:58;;;;;;;11.80;5.30;;;;;;;1.56;100.00;101386.00;108202;1279;61195;-79
2022/01/16 02:28:45;;;;;;;16.70;8.40;;;;;;;1.51;100.00;101385.62;108231;1278;61256;-81
2022/01/16 02:31:22;;;;;;;18.50;8.20;;;;;;;1.50;100.00;101387.40;108178;1279;60588;-81
2022/01/16 02:36:31;;;;;;;17.40;7.90;;;;;;;1.51;100.00;101393.62;107990;1279;73030;-81
2022/01/16 02:39:16;;;;;;;13.00;6.30;;;;;;;1.50;100.00;101389.47;108224;1279;73335;-81
2022/01/16 02:41:47;;;;;;;12.50;6.90;;;;;;;1.51;100.00;101381.60;108015;1278;61451;-82
2022/01/16 02:44:22;;;;;;;15.60;7.20;;;;;;;1.52;100.00;101378.24;108262;1278;60950;-82
2022/01/16 02:46:50;;;;;;;16.90;7.80;;;;;;;1.51;100.00;101379.48;107985;1279;73652;-82
2022/01/16 02:49:23;;;;;;;13.80;6.60;;;;;;;1.51;100.00;101381.61;108158;1279;71270;-81
2022/01/16 02:51:56;;;;;;;13.40;5.90;;;;;;;1.51;100.00;101380.89;108247;1279;73101;-81
2022/01/16 02:54:24;;;;;;;16.10;7.90;;;;;;;1.50;100.00;101377.98;108116;1279;59773;-81
2022/01/16 02:56:57;;;;;;;14.60;7.30;;;;;;;1.49;100.00;101367.79;108032;1279;61459;-81
2022/01/16 02:59:24;;;;;;;18.70;8.70;;;;;;;1.47;100.00;101364.08;107973;1279;74943;-82
2022/01/16 03:02:02;;;;;;;16.00;8.00;;;;;;;1.46;100.00;101364.14;108177;1279;72620;-82
2022/01/16 03:04:30;;;;;;;17.70;7.50;;;;;;;1.45;100.00;101359.52;107977;1279;71670;-82
2022/01/16 03:07:02;;;;;;;13.90;7.60;;;;;;;1.45;100.00;101355.54;108217;1279;62483;-82
2022/01/16 03:09:45;;;;;;;14.00;7.40;;;;;;;1.44;100.00;101349.11;107991;1279;60493;-81
2022/01/16 03:12:14;;;;;;;11.10;6.50;;;;;;;1.44;100.00;101349.98;107980;1279;73645;-81
2022/01/16 03:14:41;;;;;;;14.30;7.20;;;;;;;1.45;100.00;101346.46;108207;1279;71344;-82
2022/01/16 03:17:09;;;;;;;15.70;6.20;;;;;;;1.44;100.00;101348.20;108259;1278;59227;-81
2022/01/16 03:22:22;;;;;;;15.30;7.60;;;;;;;1.44;100.00;101341.42;108358;1279;60576;-82
2022/01/16 03:24:49;;;;;;;12.30;5.80;;;;;;;1.45;100.00;101345.73;108248;1277;76436;-82
2022/01/16 03:27:19;;;;;;;14.80;7.10;;;;;;;1.46;100.00;101338.84;107889;1278;70444;-81
2022/01/16 03:29:50;;;;;;;15.70;6.30;;;;;;;1.47;100.00;101346.48;107694;1279;75344;-81
2022/01/16 03:32:21;;;;;;;13.60;6.70;;;;;;;1.46;100.00;101352.27;107968;1279;61446;-81
2022/01/16 03:34:48;;;;;;;12.90;7.20;;;;;;;1.45;100.00;101353.02;107908;1279;60753;-81
2022/01/16 03:37:16;;;;;;;11.80;6.20;;;;;;;1.45;100.00;101350.24;107887;1279;74625;-80
2022/01/16 03:39:48;;;;;;;13.50;6.80;;;;;;;1.44;100.00;101340.89;107949;1279;73218;-81
2022/01/16 03:42:23;;;;;;;13.50;6.90;;;;;;;1.43;100.00;101338.02;107771;1279;73770;-81
2022/01/16 03:44:50;;;;;;;11.90;6.10;;;;;;;1.40;100.00;101335.05;108182;1279;61279;-81
2022/01/16 03:47:23;;;;;;;11.20;6.10;;;;;;;1.39;100.00;101334.28;107952;1279;60743;-81
2022/01/16 03:49:58;;;;;;;11.30;5.80;;;;;;;1.37;100.00;101331.41;108213;1279;76101;-82
2022/01/16 03:52:24;;;;;;;11.00;5.80;;;;;;;1.36;100.00;101331.64;108099;1278;72565;-82
2022/01/16 03:54:52;;;;;;;11.70;5.60;;;;;;;1.34;100.00;101334.04;108033;1277;73119;-81
2022/01/16 03:57:25;;;;;;;8.60;4.30;;;;;;;1.33;100.00;101332.90;107926;1279;60256;-81
2022/01/16 03:59:52;;;;;;;10.70;5.00;;;;;;;1.31;100.00;101332.18;107965;1279;61438;-79
2022/01/16 04:02:19;;;;;;;15.90;4.90;;;;;;;1.29;100.00;101330.55;108090;1278;77763;-79
2022/01/16 04:04:49;;;;;;;8.10;4.30;;;;;;;1.28;100.00;101329.61;108062;1279;71572;-80
2022/01/16 04:07:25;;;;;;;12.20;5.30;;;;;;;1.26;100.00;101328.98;108149;1279;72672;-79
2022/01/16 04:09:52;;;;;;;8.00;4.10;;;;;;;1.25;100.00;101339.73;107938;1279;61737;-80
2022/01/16 04:12:39;;;;;;;10.50;5.70;;;;;;;1.22;100.00;101344.42;107894;1279;60445;-79
2022/01/16 04:18:04;;;;;;;7.90;4.00;;;;;;;1.17;100.00;101335.46;108150;1279;72226;-79
2022/01/16 04:20:33;;;;;;;7.30;3.80;;;;;;;1.15;100.00;101346.95;107880;1279;71728;-79
2022/01/16 04:23:00;;;;;;;10.40;5.60;;;;;;;1.12;100.00;101353.08;107921;1279;61178;-79
2022/01/16 04:25:39;;;;;;;12.20;5.40;;;;;;;1.10;100.00;101348.34;108017;1279;59779;-79
2022/01/16 04:28:06;;;;;;;14.00;6.20;;;;;;;1.07;100.00;101348.13;107923;1278;75111;-77
2022/01/16 04:30:33;;;;;;;11.10;5.30;;;;;;;1.06;100.00;101354.30;107847;1279;71335;-77
2022/01/16 04:33:00;;;;;;;12.70;5.90;;;;;;;1.06;100.00;101353.98;108177;1279;72982;-77
2022/01/16 04:35:28;;;;;;;10.40;4.70;;;;;;;1.05;100.00;101353.69;108170;1279;61684;-77
2022/01/16 04:37:54;;;;;;;12.10;5.30;;;;;;;1.03;100.00;101366.68;108173;1279;60620;-77
2022/01/16 04:40:40;;;;;;;;;;;;;;;0.99;100.00;101373.19;108169;1279;76489;-77
2022/01/16 04:45:55;;;;;;;8.80;4.80;;;;;;;0.88;100.00;101387.48;108110;1279;74192;-77
2022/01/16 04:48:22;;;;;;;9.50;4.70;;;;;;;0.84;100.00;101392.48;107892;1279;61254;-80
2022/01/16 04:50:51;;;;;;;9.00;5.20;;;;;;;0.79;100.00;101388.90;108192;1279;59175;-77
2022/01/16 04:53:19;;;;;;;11.10;5.80;;;;;;;0.77;100.00;101388.48;107661;1279;74936;-78
2022/01/16 04:55:47;;;;;;;11.90;5.20;;;;;;;0.75;100.00;101383.73;108185;1279;70355;-80
2022/01/16 04:58:14;;;;;;;12.00;6.90;;;;;;;0.73;100.00;101377.45;108144;1279;74200;-79
2022/01/16 05:00:41;;;;;;;12.20;6.10;;;;;;;0.72;100.00;101377.35;108227;1279;61601;-80
2022/01/16 05:03:10;;;;;;;13.40;6.30;;;;;;;0.71;100.00;101375.79;108190;1279;60618;-79
2022/01/16 05:05:37;;;;;;;11.50;6.50;;;;;;;0.71;100.00;101374.40;108224;1279;75374;-80
2022/01/16 05:08:04;;;;;;;13.80;6.10;;;;;;;0.71;100.00;101366.11;107972;1279;69747;-77
2022/01/16 05:10:32;;;;;;;12.90;5.90;;;;;;;0.70;100.00;101357.06;108121;1279;73546;-76
2022/01/16 05:19:00;;;;;;;9.90;5.00;;;;;;;0.66;100.00;101345.66;107426;1285;74152;-80
2022/01/16 05:21:27;;;;;;;9.50;5.10;;;;;;;0.66;100.00;101332.27;107742;1279;72420;-80
2022/01/16 05:23:54;;;;;;;7.30;4.00;;;;;;;0.67;100.00;101321.94;108113;1279;74688;-80
2022/01/16 05:26:29;;;;;;;8.70;4.80;;;;;;;0.68;100.00;101318.38;107965;1279;61130;-80
2022/01/16 05:28:59;;;;;;;12.90;3.70;;;;;;;0.71;100.00;101322.05;108200;1279;60653;-80
2022/01/16 05:31:32;;;;;;;6.50;3.40;;;;;;;0.72;100.00;101323.20;107971;1279;74676;-80
2022/01/16 05:33:59;;;;;;;7.80;3.70;;;;;;;0.73;100.00;101321.39;108084;1279;72412;-77
2022/01/16 05:36:35;;;;;;;9.30;4.30;;;;;;;0.74;100.00;101323.05;107898;1279;73101;-77
2022/01/16 05:39:02;;;;;;;9.80;5.20;;;;;;;0.74;100.00;101315.55;108114;1279;61490;-77
2022/01/16 05:41:29;;;;;;;9.20;4.50;;;;;;;0.76;100.00;101310.04;108148;1279;60664;-77
2022/01/16 05:43:56;;;;;;;10.70;4.60;;;;;;;0.77;100.00;101310.86;108133;1279;73980;-77
2022/01/16 05:46:36;;;;;;;;;;;;;;;;;;;;;
2022/01/16 05:49:06;;;;;;;9.10;4.70;;;;;;;0.76;100.00;101328.16;108068;1279;71975;-77
2022/01/16 05:51:36;;;;;;;7.30;3.80;;;;;;;0.75;100.00;101330.50;108094;1279;59246;-77
2022/01/16 05:54:42;;;;;;;9.10;4.40;;;;;;;0.74;100.00;101331.60;107938;1279;60621;-80
2022/01/16 05:57:10;;;;;;;16.50;6.10;;;;;;;0.72;100.00;101335.52;107731;1279;76403;-81
2022/01/16 05:59:43;;;;;;;12.10;5.10;;;;;;;0.73;100.00;101341.07;108262;1279;72339;-80
2022/01/16 06:02:12;;;;;;;9.90;4.20;;;;;;;0.72;100.00;101345.10;108201;1279;71662;-78
2022/01/16 06:04:39;;;;;;;6.50;3.50;;;;;;;0.72;100.00;101346.54;108155;1279;61534;-78
2022/01/16 06:07:06;;;;;;;7.90;4.40;;;;;;;0.73;100.00;101353.59;108126;1277;60577;-79
2022/01/16 06:09:36;;;;;;;6.40;3.30;;;;;;;0.74;100.00;101351.07;108181;1278;74398;-78
2022/01/16 06:12:04;;;;;;;7.00;3.40;;;;;;;0.77;100.00;101346.52;107889;1279;73580;-78
2022/01/16 06:14:31;;;;;;;7.60;4.20;;;;;;;0.78;100.00;101336.76;107995;1279;73899;-79
2022/01/16 06:16:59;;;;;;;7.90;4.50;;;;;;;0.79;100.00;101331.23;108160;1279;60151;-77
2022/01/16 06:19:36;;;;;;;5.70;2.80;;;;;;;0.85;100.00;101326.08;108232;1278;60386;-80
2022/01/16 06:22:17;;;;;;;;;;;;;;;;;;;;;
2022/01/16 06:24:45;;;;;;;7.60;4.00;;;;;;;0.95;100.00;101329.44;108226;1279;71396;-80
2022/01/16 06:27:24;;;;;;;;;;;;;;;;;;;;;
2022/01/16 06:30:00;;;;;;;9.20;4.40;;;;;;;1.04;100.00;101331.45;108021;1279;61888;-80
2022/01/16 06:32:38;;;;;;;;;;;;;;;;;;;;;
2022/01/16 06:35:10;;;;;;;9.80;4.10;;;;;;;1.14;100.00;101334.45;108273;1279;74901;-80
2022/01/16 06:37:36;;;;;;;5.70;3.40;;;;;;;1.17;100.00;101337.23;108240;1279;71503;-78
2022/01/16 06:40:29;;;;;;;6.70;3.90;;;;;;;1.18;100.00;101337.16;108063;1279;71623;-78
2022/01/16 06:42:54;;;;;;;8.30;4.20;;;;;;;1.19;100.00;101332.73;108118;1279;61398;-78
2022/01/16 06:45:28;;;;;;;7.30;4.30;;;;;;;1.21;100.00;101336.24;108134;1279;60821;-78
2022/01/16 06:47:57;;;;;;;7.80;4.10;;;;;;;1.22;100.00;101336.21;108146;1279;74683;-78
2022/01/16 06:50:26;;;;;;;7.70;4.30;;;;;;;1.22;100.00;101336.92;108124;1279;71698;-79
2022/01/16 06:52:53;;;;;;;6.60;3.70;;;;;;;1.24;100.00;101342.73;108096;1279;73959;-78
2022/01/16 06:55:27;;;;;;;7.20;3.80;;;;;;;1.27;100.00;101354.93;108042;1279;60149;-77
2022/01/16 06:57:54;;;;;;;9.80;4.80;;;;;;;1.28;100.00;101360.59;107785;1279;60593;-78
2022/01/16 07:00:21;;;;;;;7.50;4.50;;;;;;;1.31;100.00;101358.67;108104;1279;75948;-78
2022/01/16 07:02:52;;;;;;;8.90;5.00;;;;;;;1.34;100.00;101362.16;107992;1279;72475;-78
2022/01/16 07:05:27;;;;;;;5.90;3.60;;;;;;;1.36;100.00;101364.95;107946;1279;73836;-78
2022/01/16 07:07:54;;;;;;;;;;;;;;;1.38;100.00;101363.41;107877;1279;61516;-78
2022/01/16 07:10:20;;;;;;;10.40;5.30;;;;;;;1.42;100.00;101365.43;107819;1279;60327;-78
2022/01/16 07:13:00;;;;;;;;;;;;;;;;;;;;;
2022/01/16 07:15:35;;;;;;;9.80;4.90;;;;;;;1.46;100.00;101376.33;108134;1279;71421;-78
2022/01/16 07:18:10;;;;;;;8.50;4.60;;;;;;;1.47;100.00;101376.09;108135;1279;72890;-79
2022/01/16 07:20:43;;;;;;;7.20;4.20;;;;;;;1.48;100.00;101374.30;108172;1280;59549;-79
2022/01/16 07:23:40;;;;;;;;;;;;;;;;;;;;;
2022/01/16 07:26:46;;;;;;;9.20;5.30;;;;;;;1.48;100.00;101377.56;108004;1279;76237;-80
2022/01/16 07:29:13;;;;;;;9.50;5.80;;;;;;;1.49;100.00;101380.99;107732;1280;72531;-78
2022/01/16 07:31:40;;;;;;;7.70;4.60;;;;;;;1.49;100.00;101383.29;108031;1279;73727;-77
2022/01/16 07:34:08;;;;;;;10.90;6.00;;;;;;;1.51;100.00;101394.45;107841;1281;62234;-77
2022/01/16 07:36:50;;;;;;;;;;;;;;;;;;;;;
2022/01/16 07:40:21;;;;;;;8.30;4.90;;;;;;;1.54;99.94;101398.48;108216;1279;76085;-81
2022/01/16 07:42:46;;;;;;;12.00;4.40;;;;;;;1.54;99.93;101398.12;107912;1279;70618;-77
2022/01/16 07:45:14;;;;;;;10.60;5.80;;;;;;;1.53;99.86;101400.11;107859;1281;74087;-77
2022/01/16 07:48:15;;;;;;;10.40;6.50;;;;;;;1.54;99.87;101399.36;107714;1279;62591;-77
2022/01/16 07:50:43;;;;;;;10.60;5.20;;;;;;;1.55;99.56;101390.92;107683;1279;64167;-80
2022/01/16 07:53:24;;;;;;;12.90;6.80;;;;;;;1.54;99.55;101405.59;107662;1280;74506;-78
2022/01/16 07:55:52;;;;;;;14.40;7.20;;;;;;;1.56;99.61;101406.00;107903;1280;71154;-77
2022/01/16 07:58:49;;;;;;;12.50;6.20;;;;;;;1.58;99.51;101393.70;107866;1279;73248;-77
2022/01/16 08:01:35;;;;;;;13.30;6.70;;;;;;;1.58;99.24;101397.68;108097;1279;62186;-80
2022/01/16 08:04:05;;;;;;;18.50;7.20;;;;;;;1.60;99.33;101392.33;108120;1280;61553;-79
2022/01/16 08:06:32;;;;;;;20.30;9.10;;;;;;;1.60;99.23;101393.05;108124;1279;76050;-78
2022/01/16 08:08:59;;;;;;;21.50;9.50;;;;;;;1.61;99.01;101386.14;108160;1279;72584;-78
2022/01/16 08:11:39;;;;;;;20.40;8.20;;;;;;;1.62;99.00;101390.80;107887;1281;73942;-79
2022/01/16 08:14:06;;;;;;;19.30;9.20;;;;;;;1.65;99.13;101385.77;108122;1279;60680;-80
2022/01/16 08:16:32;;;;;;;22.10;11.50;;;;;;;1.66;99.09;101386.54;108155;1279;60291;-80
2022/01/16 08:19:21;;;;;;;19.90;9.20;;;;;;;1.68;99.03;101385.02;108173;1279;76302;-81
2022/01/16 08:21:49;;;;;;;26.60;11.10;;;;;;;1.69;98.93;101383.02;108177;1279;72393;-81
2022/01/16 08:24:24;;;;;;;22.40;11.20;;;;;;;1.71;98.79;101376.80;108074;1279;71813;-80
2022/01/16 08:26:52;;;;;;;29.80;12.20;;;;;;;1.72;98.75;101371.70;107829;1279;61646;-80
2022/01/16 08:29:24;;;;;;;35.10;12.80;;;;;;;1.73;99.02;101375.79;107994;1280;60434;-79
2022/01/16 08:31:52;;;;;;;28.30;11.60;;;;;;;1.75;99.02;101367.65;107891;1279;76104;-78
2022/01/16 08:34:19;;;;;;;28.50;12.80;;;;;;;1.78;99.21;101367.30;108120;1277;71694;-77
2022/01/16 08:36:46;;;;;;;24.40;10.10;;;;;;;1.80;98.89;101368.03;107986;1279;73078;-77
2022/01/16 08:39:33;;;;;;;;;;;;;;;;;;;;;
2022/01/16 08:42:08;;;;;;;34.20;13.40;;;;;;;1.80;98.62;101360.36;108215;1279;59580;-79
2022/01/16 08:44:38;;;;;;;28.70;12.60;;;;;;;1.78;98.48;101362.37;108037;1279;74968;-78
2022/01/16 08:47:06;;;;;;;28.50;12.30;;;;;;;1.79;98.91;101362.16;108131;1280;72221;-78
2022/01/16 08:49:34;;;;;;;26.10;10.80;;;;;;;1.78;99.20;101353.67;107801;1280;72865;-79
2022/01/16 08:52:07;;;;;;;37.40;14.30;;;;;;;1.78;99.02;101354.18;108115;1280;61462;-79
2022/01/16 08:54:34;;;;;;;32.30;13.80;;;;;;;1.79;99.13;101356.58;108129;1279;60814;-78
2022/01/16 08:57:24;;;;;;;37.20;14.20;;;;;;;1.81;99.21;101352.77;108143;1279;76506;-78
2022/01/16 09:00:01;;;;;;;31.10;13.00;;;;;;;1.82;99.23;101356.55;108096;1279;70445;-78
2022/01/16 09:02:28;;;;;;;23.40;8.80;;;;;;;1.82;98.88;101355.52;108129;1280;73240;-79
2022/01/16 09:04:55;;;;;;;28.80;14.10;;;;;;;1.82;99.34;101357.23;108077;1280;61590;-78
2022/01/16 09:07:22;;;;;;;25.20;11.20;;;;;;;1.82;99.27;101354.42;108124;1280;60436;-78
2022/01/16 09:09:52;;;;;;;29.80;14.70;;;;;;;1.84;99.33;101359.52;108212;1279;76006;-80
2022/01/16 09:12:18;;;;;;;34.60;14.60;;;;;;;1.86;99.58;101359.80;108135;1280;72695;-78
2022/01/16 09:14:45;;;;;;;36.80;14.60;;;;;;;1.85;99.43;101360.02;108110;1278;74895;-76
2022/01/16 09:17:14;;;;;;;38.00;14.20;;;;;;;1.86;99.73;101362.56;107740;1280;61464;-79
2022/01/16 09:19:43;;;;;;;26.90;11.90;;;;;;;1.85;99.79;101360.55;108269;1277;62440;-80
2022/01/16 09:22:11;;;;;;;34.20;14.30;;;;;;;1.84;99.91;101366.01;108273;1277;73670;-80
2022/01/16 09:24:38;;;;;;;34.30;16.20;;;;;;;1.85;99.96;101364.05;108068;1279;71319;-78
2022/01/16 09:27:09;;;;;;;32.50;14.70;;;;;;;1.85;99.89;101373.30;107869;1279;73900;-81
2022/01/16 09:29:38;;;;;;;37.00;15.50;;;;;;;1.86;100.00;101366.77;108249;1277;61764;-80
2022/01/16 09:32:07;;;;;;;24.80;9.70;;;;;;;1.88;99.99;101360.88;108065;1279;61632;-81
2022/01/16 09:34:37;;;;;;;40.20;16.20;;;;;;;1.90;100.00;101356.40;108023;1280;74613;-80
2022/01/16 09:37:21;;;;;;;41.00;17.30;;;;;;;1.92;99.95;101353.66;108217;1279;72403;-81
2022/01/16 09:39:52;;;;;;;37.00;16.20;;;;;;;1.94;99.99;101359.58;108236;1279;73907;-82
2022/01/16 09:42:22;;;;;;;42.00;17.00;;;;;;;1.96;99.78;101359.64;107996;1280;61574;-80
2022/01/16 09:45:09;;;;;;;35.70;15.00;;;;;;;2.00;99.87;101358.85;107964;1279;61542;-79
2022/01/16 09:47:43;;;;;;;33.50;14.20;;;;;;;2.01;99.77;101365.77;108080;1279;75953;-79
2022/01/16 09:50:13;;;;;;;36.40;16.40;;;;;;;2.01;99.43;101376.17;107898;1279;69915;-80
2022/01/16 09:52:43;;;;;;;30.50;12.80;;;;;;;2.02;99.65;101373.55;107751;1279;73080;-80
2022/01/16 09:55:12;;;;;;;40.30;17.60;;;;;;;2.05;99.75;101375.96;107634;1280;61598;-78
2022/01/16 09:57:45;;;;;;;42.20;18.20;;;;;;;2.07;99.64;101373.73;108080;1279;60290;-81
2022/01/16 10:00:33;;;;;;;39.90;16.60;;;;;;;2.10;99.75;101375.26;107968;1279;73342;-79
2022/01/16 10:03:00;;;;;;;28.10;11.60;;;;;;;2.12;99.49;101375.32;107955;1279;69898;-79
2022/01/16 10:05:36;;;;;;;42.00;16.30;;;;;;;2.12;99.53;101374.08;107882;1279;74031;-79
2022/01/16 10:08:05;;;;;;;41.00;16.10;;;;;;;2.13;99.59;101378.93;108089;1279;62775;-78
2022/01/16 10:10:38;;;;;;;32.00;14.20;;;;;;;2.13;99.80;101377.86;108142;1279;60726;-79
2022/01/16 10:13:42;;;;;;;35.30;15.00;;;;;;;2.14;99.79;101378.83;107969;1279;75201;-79
2022/01/16 10:16:24;;;;;;;30.90;14.10;;;;;;;2.14;99.98;101380.58;108200;1279;72592;-80
2022/01/16 10:18:51;;;;;;;37.40;16.90;;;;;;;2.15;100.00;101381.41;107956;1279;72995;-79
2022/01/16 10:21:34;;;;;;;37.20;17.10;;;;;;;2.14;100.00;101383.19;108220;1277;62499;-79
2022/01/16 10:24:34;;;;;;;;;;;;;;;;;;;;;
2022/01/16 10:29:39;;;;;;;37.30;15.50;;;;;;;2.15;100.00;101386.77;107982;1279;72117;-76
2022/01/16 10:32:13;;;;;;;39.10;17.00;;;;;;;2.16;100.00;101389.87;107989;1279;73029;-76
2022/01/16 10:34:41;;;;;;;42.70;17.80;;;;;;;2.17;100.00;101391.70;107973;1278;61466;-76
2022/01/16 10:37:30;;;;;;;35.60;14.70;;;;;;;2.17;100.00;101386.11;107671;1277;60701;-75
2022/01/16 10:40:09;;;;;;;36.50;15.80;;;;;;;2.17;100.00;101387.55;107998;1279;75029;-75
2022/01/16 10:42:39;;;;;;;22.20;10.00;;;;;;;2.18;100.00;101386.42;108006;1279;71321;-75
2022/01/16 10:45:11;;;;;;;36.80;15.90;;;;;;;2.17;100.00;101385.79;107849;1279;72708;-75
2022/01/16 10:47:40;;;;;;;32.00;13.00;;;;;;;2.15;100.00;101381.39;107749;1281;61542;-75
2022/01/16 10:50:09;;;;;;;35.20;15.00;;;;;;;2.16;100.00;101379.92;107882;1281;61719;-73
2022/01/16 10:52:46;;;;;;;30.50;12.60;;;;;;;2.15;100.00;101379.11;108016;1279;76002;-76
2022/01/16 10:55:16;;;;;;;32.20;16.40;;;;;;;2.15;100.00;101372.13;107816;1280;71779;-74
2022/01/16 10:57:42;;;;;;;36.40;15.70;;;;;;;2.16;100.00;101374.18;107928;1280;73216;-75
2022/01/16 11:00:22;;;;;;;39.40;16.20;;;;;;;2.18;100.00;101377.69;107955;1279;61556;-75
2022/01/16 11:02:51;;;;;;;41.60;17.30;;;;;;;2.22;100.00;101377.07;107719;1281;60662;-75
2022/01/16 11:05:21;;;;;;;40.00;17.50;;;;;;;2.27;100.00;101375.20;107973;1278;76173;-75
2022/01/16 11:08:12;;;;;;;38.90;16.10;;;;;;;2.30;100.00;101379.48;108014;1279;71253;-75
2022/01/16 11:10:55;;;;;;;31.50;13.80;;;;;;;2.36;100.00;101376.45;107985;1279;72959;-75
2022/01/16 11:13:27;;;;;;;33.00;14.40;;;;;;;2.41;100.00;101375.94;107881;1279;60651;-74
2022/01/16 11:15:56;;;;;;;20.40;9.10;;;;;;;2.45;100.00;101378.48;107994;1279;61741;-74
2022/01/16 11:18:27;;;;;;;28.80;12.90;;;;;;;2.47;100.00;101374.17;107965;1279;74884;-75
2022/01/16 11:26:24;;;;;;;23.10;11.80;;;;;;;2.54;100.00;101364.80;107857;1281;62518;-74
2022/01/16 11:28:52;;;;;;;27.70;13.50;;;;;;;2.55;100.00;101367.52;108042;1277;60470;-74
2022/01/16 11:31:20;;;;;;;19.80;9.30;;;;;;;2.57;100.00;101372.93;108096;1279;74939;-74
2022/01/16 11:33:46;;;;;;;23.50;10.50;;;;;;;2.59;100.00;101375.09;107945;1279;71373;-74
2022/01/16 11:36:23;;;;;;;26.80;12.40;;;;;;;2.61;100.00;101376.89;107956;1279;74153;-74
2022/01/16 11:38:54;;;;;;;21.00;12.70;;;;;;;2.63;100.00;101371.77;108045;1279;60783;-74
2022/01/16 11:41:25;;;;;;;28.30;12.60;;;;;;;2.68;100.00;101372.52;107985;1279;61731;-74
2022/01/16 11:43:54;;;;;;;29.60;13.20;;;;;;;2.71;100.00;101372.85;107967;1279;74823;-74
2022/01/16 11:46:23;;;;;;;30.50;14.70;;;;;;;2.73;100.00;101375.65;107850;1279;72812;-75
2022/01/16 11:48:59;;;;;;;20.60;10.90;;;;;;;2.77;100.00;101375.91;108052;1279;72865;-75
2022/01/16 11:51:37;;;;;;;34.10;15.20;;;;;;;2.79;100.00;101375.23;108043;1279;61180;-75
2022/01/16 11:54:10;;;;;;;24.00;11.00;;;;;;;2.81;100.00;101370.52;108029;1279;60803;-74
2022/01/16 11:56:42;;;;;;;26.40;12.00;;;;;;;2.84;100.00;101373.29;108061;1277;76563;-74
2022/01/16 11:59:24;;;;;;;28.00;12.90;;;;;;;2.88;100.00;101370.45;107983;1279;72844;-75
2022/01/16 12:01:57;;;;;;;33.00;14.00;;;;;;;2.93;100.00;101373.45;108058;1279;71126;-75
2022/01/16 12:04:29;;;;;;;33.50;14.70;;;;;;;2.97;100.00;101368.23;108070;1278;61468;-75
2022/01/16 12:07:06;;;;;;;22.50;10.90;;;;;;;3.00;100.00;101368.35;108069;1279;61087;-75
2022/01/16 12:09:37;;;;;;;30.20;14.20;;;;;;;3.03;100.00;101371.96;108101;1278;74930;-76
2022/01/16 12:12:26;;;;;;;30.10;14.40;;;;;;;3.08;100.00;101371.46;108039;1279;72337;-75
2022/01/16 12:15:06;;;;;;;27.10;13.60;;;;;;;3.15;100.00;101359.59;107921;1279;74262;-76
2022/01/16 12:23:03;;;;;;;29.00;12.80;;;;;;;3.30;99.92;101361.64;108084;1279;75477;-76
2022/01/16 12:25:51;;;;;;;30.60;13.70;;;;;;;3.33;99.90;101364.59;108086;1279;71136;-75
2022/01/16 12:28:25;;;;;;;24.00;12.80;;;;;;;3.34;99.95;101361.42;108079;1279;73229;-75
2022/01/16 12:30:55;;;;;;;28.20;12.30;;;;;;;3.34;99.92;101356.63;108017;1279;61458;-74
2022/01/16 12:33:23;;;;;;;29.00;12.40;;;;;;;3.35;100.00;101352.41;108090;1279;60617;-75
2022/01/16 12:35:50;;;;;;;37.20;14.60;;;;;;;3.34;99.99;101343.04;108031;1279;75014;-75
2022/01/16 12:38:34;;;;;;;21.80;9.80;;;;;;;3.35;100.00;101349.81;107656;1281;72372;-75
2022/01/16 12:41:04;;;;;;;27.70;14.10;;;;;;;3.33;100.00;101355.54;108017;1279;73647;-75
2022/01/16 12:43:46;;;;;;;34.20;15.80;;;;;;;3.33;99.97;101358.87;108060;1279;62583;-76
2022/01/16 12:46:22;;;;;;;31.20;13.80;;;;;;;3.35;100.00;101358.54;107803;1279;61631;-76
2022/01/16 12:48:51;;;;;;;36.70;16.30;;;;;;;3.36;100.00;101357.54;107774;1281;75602;-76
2022/01/16 12:51:22;;;;;;;38.20;16.80;;;;;;;3.39;100.00;101353.81;108011;1278;70337;-76